sensor_id;sensor_type;location;lat;lon;timestamp;P1;durP1;ratioP1;P2;durP2;ratioP2
73747;SDS011;62056;52.130;5.428;2023-02-15T00:01:40;31.33;;;16.20;;
73747;SDS011;62056;52.130;5.428;2023-02-15T00:04:08;34.92;;;17.33;;
73747;SDS011;62056;52.130;5.428;2023-02-15T00:06:35;29.00;;;15.75;;
73747;SDS011;62056;52.130;5.428;2023-02-15T00:09:02;27.88;;;15.52;;
73747;SDS011;62056;52.130;5.428;2023-02-15T00:11:30;24.98;;;14.80;;
73747;SDS011;62056;52.130;5.428;2023-02-15T00:16:33;22.92;;;14.07;;
73747;SDS011;62056;52.130;5.428;2023-02-15T00:19:01;29.73;;;15.57;;
73747;SDS011;62056;52.130;5.428;2023-02-15T00:21:29;28.15;;;15.70;;
73747;SDS011;62056;52.130;5.428;2023-02-15T00:23:58;28.08;;;14.85;;
73747;SDS011;62056;52.130;5.428;2023-02-15T00:26:26;26.10;;;14.43;;
73747;SDS011;62056;52.130;5.428;2023-02-15T00:28:53;28.52;;;14.25;;
73747;SDS011;62056;52.130;5.428;2023-02-15T00:31:21;30.45;;;13.90;;
73747;SDS011;62056;52.130;5.428;2023-02-15T00:33:48;23.85;;;14.85;;
73747;SDS011;62056;52.130;5.428;2023-02-15T00:36:14;24.13;;;13.18;;
73747;SDS011;62056;52.130;5.428;2023-02-15T00:38:41;21.73;;;11.60;;
73747;SDS011;62056;52.130;5.428;2023-02-15T00:41:08;21.80;;;12.75;;
73747;SDS011;62056;52.130;5.428;2023-02-15T00:43:35;19.75;;;11.70;;
73747;SDS011;62056;52.130;5.428;2023-02-15T00:46:03;15.68;;;11.20;;
73747;SDS011;62056;52.130;5.428;2023-02-15T00:48:31;16.23;;;10.30;;
73747;SDS011;62056;52.130;5.428;2023-02-15T00:50:59;15.77;;;10.17;;
73747;SDS011;62056;52.130;5.428;2023-02-15T00:53:27;21.05;;;10.75;;
73747;SDS011;62056;52.130;5.428;2023-02-15T00:55:55;16.85;;;9.90;;
73747;SDS011;62056;52.130;5.428;2023-02-15T00:58:22;14.48;;;9.23;;
73747;SDS011;62056;52.130;5.428;2023-02-15T01:00:49;20.83;;;10.45;;
73747;SDS011;62056;52.130;5.428;2023-02-15T01:03:17;22.93;;;12.17;;
73747;SDS011;62056;52.130;5.428;2023-02-15T01:05:45;19.80;;;11.80;;
73747;SDS011;62056;52.130;5.428;2023-02-15T01:08:13;19.40;;;11.98;;
73747;SDS011;62056;52.130;5.428;2023-02-15T01:10:40;23.15;;;12.38;;
73747;SDS011;62056;52.130;5.428;2023-02-15T01:13:07;21.33;;;13.20;;
73747;SDS011;62056;52.130;5.428;2023-02-15T01:15:35;20.30;;;10.40;;
73747;SDS011;62056;52.130;5.428;2023-02-15T01:18:02;19.15;;;11.82;;
73747;SDS011;62056;52.130;5.428;2023-02-15T01:20:29;22.17;;;13.55;;
73747;SDS011;62056;52.130;5.428;2023-02-15T01:22:56;23.55;;;12.85;;
73747;SDS011;62056;52.130;5.428;2023-02-15T01:25:23;21.88;;;12.35;;
73747;SDS011;62056;52.130;5.428;2023-02-15T01:27:51;21.20;;;12.77;;
73747;SDS011;62056;52.130;5.428;2023-02-15T01:30:17;22.35;;;12.68;;
73747;SDS011;62056;52.130;5.428;2023-02-15T01:32:44;18.13;;;11.70;;
73747;SDS011;62056;52.130;5.428;2023-02-15T01:35:11;20.98;;;12.32;;
73747;SDS011;62056;52.130;5.428;2023-02-15T01:37:38;22.58;;;13.75;;
73747;SDS011;62056;52.130;5.428;2023-02-15T01:40:06;25.53;;;12.80;;
73747;SDS011;62056;52.130;5.428;2023-02-15T01:42:34;19.58;;;11.88;;
73747;SDS011;62056;52.130;5.428;2023-02-15T01:45:03;17.50;;;12.10;;
73747;SDS011;62056;52.130;5.428;2023-02-15T01:47:42;19.75;;;12.40;;
73747;SDS011;62056;52.130;5.428;2023-02-15T01:50:11;20.95;;;11.43;;
73747;SDS011;62056;52.130;5.428;2023-02-15T01:52:46;22.70;;;13.10;;
73747;SDS011;62056;52.130;5.428;2023-02-15T01:55:19;22.45;;;12.43;;
73747;SDS011;62056;52.130;5.428;2023-02-15T01:57:48;19.08;;;11.65;;
73747;SDS011;62056;52.130;5.428;2023-02-15T02:00:16;23.02;;;13.50;;
73747;SDS011;62056;52.130;5.428;2023-02-15T02:02:44;22.40;;;12.90;;
73747;SDS011;62056;52.130;5.428;2023-02-15T02:05:15;21.13;;;12.70;;
73747;SDS011;62056;52.130;5.428;2023-02-15T02:07:43;18.60;;;11.65;;
73747;SDS011;62056;52.130;5.428;2023-02-15T02:10:14;20.70;;;11.40;;
73747;SDS011;62056;52.130;5.428;2023-02-15T02:12:43;19.38;;;10.57;;
73747;SDS011;62056;52.130;5.428;2023-02-15T02:15:13;18.90;;;11.85;;
73747;SDS011;62056;52.130;5.428;2023-02-15T02:18:01;17.10;;;11.07;;
73747;SDS011;62056;52.130;5.428;2023-02-15T02:20:51;18.42;;;11.32;;
73747;SDS011;62056;52.130;5.428;2023-02-15T02:23:38;20.60;;;11.68;;
73747;SDS011;62056;52.130;5.428;2023-02-15T02:37:45;18.35;;;11.15;;
73747;SDS011;62056;52.130;5.428;2023-02-15T02:40:29;18.42;;;11.32;;
73747;SDS011;62056;52.130;5.428;2023-02-15T02:43:23;13.50;;;9.40;;
73747;SDS011;62056;52.130;5.428;2023-02-15T02:45:59;22.90;;;11.60;;
73747;SDS011;62056;52.130;5.428;2023-02-15T02:48:32;22.00;;;12.60;;
73747;SDS011;62056;52.130;5.428;2023-02-15T02:51:00;17.27;;;11.40;;
73747;SDS011;62056;52.130;5.428;2023-02-15T02:53:27;18.42;;;12.02;;
73747;SDS011;62056;52.130;5.428;2023-02-15T02:56:09;17.15;;;10.65;;
73747;SDS011;62056;52.130;5.428;2023-02-15T02:58:48;16.83;;;10.17;;
73747;SDS011;62056;52.130;5.428;2023-02-15T03:01:27;17.45;;;10.00;;
73747;SDS011;62056;52.130;5.428;2023-02-15T03:04:00;13.25;;;8.48;;
73747;SDS011;62056;52.130;5.428;2023-02-15T03:06:36;15.43;;;9.43;;
73747;SDS011;62056;52.130;5.428;2023-02-15T03:09:09;19.17;;;11.25;;
73747;SDS011;62056;52.130;5.428;2023-02-15T03:11:43;20.10;;;11.47;;
73747;SDS011;62056;52.130;5.428;2023-02-15T03:14:11;21.25;;;12.30;;
73747;SDS011;62056;52.130;5.428;2023-02-15T03:16:40;18.88;;;11.20;;
73747;SDS011;62056;52.130;5.428;2023-02-15T03:19:11;17.05;;;11.80;;
73747;SDS011;62056;52.130;5.428;2023-02-15T03:21:51;19.40;;;11.55;;
73747;SDS011;62056;52.130;5.428;2023-02-15T03:24:32;21.43;;;11.93;;
73747;SDS011;62056;52.130;5.428;2023-02-15T03:27:15;17.25;;;11.15;;
73747;SDS011;62056;52.130;5.428;2023-02-15T03:29:46;19.25;;;10.82;;
73747;SDS011;62056;52.130;5.428;2023-02-15T03:32:19;18.08;;;10.93;;
73747;SDS011;62056;52.130;5.428;2023-02-15T03:34:46;23.42;;;12.02;;
73747;SDS011;62056;52.130;5.428;2023-02-15T03:40:00;20.35;;;11.80;;
73747;SDS011;62056;52.130;5.428;2023-02-15T03:42:55;19.83;;;11.73;;
73747;SDS011;62056;52.130;5.428;2023-02-15T03:45:28;19.33;;;11.13;;
73747;SDS011;62056;52.130;5.428;2023-02-15T03:47:57;18.08;;;10.95;;
73747;SDS011;62056;52.130;5.428;2023-02-15T03:50:29;15.40;;;9.70;;
73747;SDS011;62056;52.130;5.428;2023-02-15T03:53:17;19.48;;;11.20;;
73747;SDS011;62056;52.130;5.428;2023-02-15T03:55:47;19.23;;;11.77;;
73747;SDS011;62056;52.130;5.428;2023-02-15T03:58:15;18.30;;;10.93;;
73747;SDS011;62056;52.130;5.428;2023-02-15T04:01:03;22.42;;;10.93;;
73747;SDS011;62056;52.130;5.428;2023-02-15T04:03:57;19.40;;;11.23;;
73747;SDS011;62056;52.130;5.428;2023-02-15T04:06:27;16.38;;;10.38;;
73747;SDS011;62056;52.130;5.428;2023-02-15T04:08:54;18.55;;;10.00;;
73747;SDS011;62056;52.130;5.428;2023-02-15T04:11:39;18.55;;;10.25;;
73747;SDS011;62056;52.130;5.428;2023-02-15T04:14:06;16.77;;;9.60;;
73747;SDS011;62056;52.130;5.428;2023-02-15T04:16:52;14.70;;;9.87;;
73747;SDS011;62056;52.130;5.428;2023-02-15T04:19:18;16.90;;;10.20;;
73747;SDS011;62056;52.130;5.428;2023-02-15T04:22:04;14.43;;;8.88;;
73747;SDS011;62056;52.130;5.428;2023-02-15T04:24:49;16.92;;;10.50;;
73747;SDS011;62056;52.130;5.428;2023-02-15T04:27:35;24.85;;;12.20;;
73747;SDS011;62056;52.130;5.428;2023-02-15T04:30:03;17.20;;;10.17;;
73747;SDS011;62056;52.130;5.428;2023-02-15T04:32:30;22.17;;;11.98;;
73747;SDS011;62056;52.130;5.428;2023-02-15T04:34:56;13.73;;;9.57;;
73747;SDS011;62056;52.130;5.428;2023-02-15T04:37:23;19.27;;;9.70;;
73747;SDS011;62056;52.130;5.428;2023-02-15T04:39:50;22.73;;;11.88;;
73747;SDS011;62056;52.130;5.428;2023-02-15T04:42:17;20.00;;;11.83;;
73747;SDS011;62056;52.130;5.428;2023-02-15T04:44:44;17.02;;;10.43;;
73747;SDS011;62056;52.130;5.428;2023-02-15T04:47:11;21.77;;;10.75;;
73747;SDS011;62056;52.130;5.428;2023-02-15T04:49:38;24.60;;;11.90;;
73747;SDS011;62056;52.130;5.428;2023-02-15T04:52:04;18.75;;;12.05;;
73747;SDS011;62056;52.130;5.428;2023-02-15T04:54:31;19.47;;;11.30;;
73747;SDS011;62056;52.130;5.428;2023-02-15T04:56:58;19.23;;;11.40;;
73747;SDS011;62056;52.130;5.428;2023-02-15T04:59:24;21.48;;;12.93;;
73747;SDS011;62056;52.130;5.428;2023-02-15T05:01:51;21.98;;;12.88;;
73747;SDS011;62056;52.130;5.428;2023-02-15T05:04:18;21.30;;;11.27;;
73747;SDS011;62056;52.130;5.428;2023-02-15T05:06:44;18.50;;;10.37;;
73747;SDS011;62056;52.130;5.428;2023-02-15T05:09:12;15.15;;;8.90;;
73747;SDS011;62056;52.130;5.428;2023-02-15T05:11:39;21.85;;;11.98;;
73747;SDS011;62056;52.130;5.428;2023-02-15T05:14:06;20.52;;;13.00;;
73747;SDS011;62056;52.130;5.428;2023-02-15T05:16:33;22.58;;;12.02;;
73747;SDS011;62056;52.130;5.428;2023-02-15T05:19:00;22.93;;;10.80;;
73747;SDS011;62056;52.130;5.428;2023-02-15T05:21:29;16.30;;;10.07;;
73747;SDS011;62056;52.130;5.428;2023-02-15T05:23:56;17.40;;;10.45;;
73747;SDS011;62056;52.130;5.428;2023-02-15T05:26:23;20.33;;;10.30;;
73747;SDS011;62056;52.130;5.428;2023-02-15T05:29:09;25.20;;;12.15;;
73747;SDS011;62056;52.130;5.428;2023-02-15T05:31:36;18.83;;;10.70;;
73747;SDS011;62056;52.130;5.428;2023-02-15T05:34:04;24.13;;;12.73;;
73747;SDS011;62056;52.130;5.428;2023-02-15T05:36:30;22.02;;;12.07;;
73747;SDS011;62056;52.130;5.428;2023-02-15T05:38:57;17.65;;;11.32;;
73747;SDS011;62056;52.130;5.428;2023-02-15T05:41:24;24.13;;;13.40;;
73747;SDS011;62056;52.130;5.428;2023-02-15T05:43:54;24.13;;;11.77;;
73747;SDS011;62056;52.130;5.428;2023-02-15T05:46:21;21.15;;;12.00;;
73747;SDS011;62056;52.130;5.428;2023-02-15T05:48:48;20.70;;;12.38;;
73747;SDS011;62056;52.130;5.428;2023-02-15T05:51:15;24.95;;;13.50;;
73747;SDS011;62056;52.130;5.428;2023-02-15T05:53:42;25.38;;;12.80;;
73747;SDS011;62056;52.130;5.428;2023-02-15T05:56:09;26.50;;;11.80;;
73747;SDS011;62056;52.130;5.428;2023-02-15T05:58:38;20.60;;;11.18;;
73747;SDS011;62056;52.130;5.428;2023-02-15T06:01:10;21.75;;;12.07;;
73747;SDS011;62056;52.130;5.428;2023-02-15T06:03:38;27.38;;;12.55;;
73747;SDS011;62056;52.130;5.428;2023-02-15T06:06:05;20.30;;;11.50;;
73747;SDS011;62056;52.130;5.428;2023-02-15T06:08:33;22.20;;;11.50;;
73747;SDS011;62056;52.130;5.428;2023-02-15T06:11:01;21.77;;;10.93;;
73747;SDS011;62056;52.130;5.428;2023-02-15T06:13:28;22.20;;;11.02;;
73747;SDS011;62056;52.130;5.428;2023-02-15T06:15:55;21.83;;;12.27;;
73747;SDS011;62056;52.130;5.428;2023-02-15T06:18:22;25.13;;;12.05;;
73747;SDS011;62056;52.130;5.428;2023-02-15T06:20:49;30.50;;;13.93;;
73747;SDS011;62056;52.130;5.428;2023-02-15T06:23:16;24.90;;;12.18;;
73747;SDS011;62056;52.130;5.428;2023-02-15T06:25:44;24.33;;;12.13;;
73747;SDS011;62056;52.130;5.428;2023-02-15T06:28:12;25.83;;;12.60;;
73747;SDS011;62056;52.130;5.428;2023-02-15T06:30:39;25.30;;;11.77;;
73747;SDS011;62056;52.130;5.428;2023-02-15T06:33:06;21.47;;;12.13;;
73747;SDS011;62056;52.130;5.428;2023-02-15T06:35:32;25.05;;;11.40;;
73747;SDS011;62056;52.130;5.428;2023-02-15T06:37:59;27.02;;;13.70;;
73747;SDS011;62056;52.130;5.428;2023-02-15T06:40:26;27.40;;;12.82;;
73747;SDS011;62056;52.130;5.428;2023-02-15T06:42:52;21.15;;;11.80;;
73747;SDS011;62056;52.130;5.428;2023-02-15T06:45:19;22.97;;;12.47;;
73747;SDS011;62056;52.130;5.428;2023-02-15T06:47:46;22.25;;;12.73;;
73747;SDS011;62056;52.130;5.428;2023-02-15T06:50:12;18.23;;;10.05;;
73747;SDS011;62056;52.130;5.428;2023-02-15T06:52:39;26.95;;;12.38;;
73747;SDS011;62056;52.130;5.428;2023-02-15T06:55:06;25.42;;;11.80;;
73747;SDS011;62056;52.130;5.428;2023-02-15T06:57:33;23.83;;;12.53;;
73747;SDS011;62056;52.130;5.428;2023-02-15T07:00:00;19.63;;;10.70;;
73747;SDS011;62056;52.130;5.428;2023-02-15T07:02:27;23.30;;;11.73;;
73747;SDS011;62056;52.130;5.428;2023-02-15T07:04:54;25.33;;;12.02;;
73747;SDS011;62056;52.130;5.428;2023-02-15T07:07:21;25.67;;;12.55;;
73747;SDS011;62056;52.130;5.428;2023-02-15T07:09:48;21.57;;;12.40;;
73747;SDS011;62056;52.130;5.428;2023-02-15T07:12:15;18.90;;;11.63;;
73747;SDS011;62056;52.130;5.428;2023-02-15T07:15:00;19.10;;;11.63;;
73747;SDS011;62056;52.130;5.428;2023-02-15T07:17:27;27.95;;;12.13;;
73747;SDS011;62056;52.130;5.428;2023-02-15T07:20:04;27.13;;;11.70;;
73747;SDS011;62056;52.130;5.428;2023-02-15T07:22:34;19.70;;;9.70;;
73747;SDS011;62056;52.130;5.428;2023-02-15T07:25:06;23.52;;;10.80;;
73747;SDS011;62056;52.130;5.428;2023-02-15T07:27:34;21.08;;;11.88;;
73747;SDS011;62056;52.130;5.428;2023-02-15T07:30:02;20.10;;;12.18;;
73747;SDS011;62056;52.130;5.428;2023-02-15T07:32:30;17.55;;;11.02;;
73747;SDS011;62056;52.130;5.428;2023-02-15T07:34:57;20.43;;;11.80;;
73747;SDS011;62056;52.130;5.428;2023-02-15T07:37:25;21.00;;;11.98;;
73747;SDS011;62056;52.130;5.428;2023-02-15T07:39:52;28.27;;;12.50;;
73747;SDS011;62056;52.130;5.428;2023-02-15T07:42:19;26.00;;;13.30;;
73747;SDS011;62056;52.130;5.428;2023-02-15T07:44:47;30.33;;;13.95;;
73747;SDS011;62056;52.130;5.428;2023-02-15T07:47:13;22.97;;;13.33;;
73747;SDS011;62056;52.130;5.428;2023-02-15T07:49:40;26.98;;;13.40;;
73747;SDS011;62056;52.130;5.428;2023-02-15T07:52:07;24.98;;;13.27;;
73747;SDS011;62056;52.130;5.428;2023-02-15T07:54:33;27.13;;;15.05;;
73747;SDS011;62056;52.130;5.428;2023-02-15T07:57:00;34.25;;;16.45;;
73747;SDS011;62056;52.130;5.428;2023-02-15T07:59:27;31.43;;;15.77;;
73747;SDS011;62056;52.130;5.428;2023-02-15T08:01:54;26.95;;;13.30;;
73747;SDS011;62056;52.130;5.428;2023-02-15T08:04:23;25.00;;;12.45;;
73747;SDS011;62056;52.130;5.428;2023-02-15T08:06:53;26.10;;;14.23;;
73747;SDS011;62056;52.130;5.428;2023-02-15T08:09:21;24.80;;;13.55;;
73747;SDS011;62056;52.130;5.428;2023-02-15T08:11:48;26.97;;;14.70;;
73747;SDS011;62056;52.130;5.428;2023-02-15T08:14:16;30.80;;;15.35;;
73747;SDS011;62056;52.130;5.428;2023-02-15T08:16:52;37.22;;;14.63;;
73747;SDS011;62056;52.130;5.428;2023-02-15T08:19:23;24.13;;;15.05;;
73747;SDS011;62056;52.130;5.428;2023-02-15T08:21:55;30.08;;;15.30;;
73747;SDS011;62056;52.130;5.428;2023-02-15T08:24:24;30.57;;;15.93;;
73747;SDS011;62056;52.130;5.428;2023-02-15T08:26:54;28.13;;;15.48;;
73747;SDS011;62056;52.130;5.428;2023-02-15T08:29:23;24.60;;;14.35;;
73747;SDS011;62056;52.130;5.428;2023-02-15T08:31:53;26.80;;;15.10;;
73747;SDS011;62056;52.130;5.428;2023-02-15T08:34:25;30.83;;;15.77;;
73747;SDS011;62056;52.130;5.428;2023-02-15T08:36:52;33.10;;;15.73;;
73747;SDS011;62056;52.130;5.428;2023-02-15T08:39:18;26.02;;;15.88;;
73747;SDS011;62056;52.130;5.428;2023-02-15T08:41:46;28.40;;;16.02;;
73747;SDS011;62056;52.130;5.428;2023-02-15T08:44:14;27.20;;;15.27;;
73747;SDS011;62056;52.130;5.428;2023-02-15T08:46:43;25.02;;;14.52;;
73747;SDS011;62056;52.130;5.428;2023-02-15T08:49:12;34.87;;;16.93;;
73747;SDS011;62056;52.130;5.428;2023-02-15T08:51:44;30.42;;;14.43;;
73747;SDS011;62056;52.130;5.428;2023-02-15T08:54:18;36.22;;;16.00;;
73747;SDS011;62056;52.130;5.428;2023-02-15T09:07:21;25.05;;;14.57;;
73747;SDS011;62056;52.130;5.428;2023-02-15T09:09:59;25.77;;;13.98;;
73747;SDS011;62056;52.130;5.428;2023-02-15T09:13:13;29.63;;;14.18;;
73747;SDS011;62056;52.130;5.428;2023-02-15T09:16:05;34.03;;;17.00;;
73747;SDS011;62056;52.130;5.428;2023-02-15T09:19:00;30.17;;;15.57;;
73747;SDS011;62056;52.130;5.428;2023-02-15T09:22:30;28.08;;;15.00;;
73747;SDS011;62056;52.130;5.428;2023-02-15T09:25:19;28.23;;;14.50;;
73747;SDS011;62056;52.130;5.428;2023-02-15T09:27:45;26.20;;;16.10;;
73747;SDS011;62056;52.130;5.428;2023-02-15T09:30:10;26.77;;;15.43;;
73747;SDS011;62056;52.130;5.428;2023-02-15T09:32:37;29.15;;;16.65;;
73747;SDS011;62056;52.130;5.428;2023-02-15T09:35:02;31.63;;;16.87;;
73747;SDS011;62056;52.130;5.428;2023-02-15T09:37:29;32.47;;;18.25;;
73747;SDS011;62056;52.130;5.428;2023-02-15T09:40:12;19.92;;;12.48;;
73747;SDS011;62056;52.130;5.428;2023-02-15T09:53:22;28.90;;;14.57;;
73747;SDS011;62056;52.130;5.428;2023-02-15T10:01:31;40.03;;;19.90;;
73747;SDS011;62056;52.130;5.428;2023-02-15T10:07:12;29.05;;;15.60;;
73747;SDS011;62056;52.130;5.428;2023-02-15T10:12:54;32.95;;;18.73;;
73747;SDS011;62056;52.130;5.428;2023-02-15T10:15:29;28.08;;;15.43;;
73747;SDS011;62056;52.130;5.428;2023-02-15T10:20:49;36.17;;;17.80;;
73747;SDS011;62056;52.130;5.428;2023-02-15T10:32:14;25.55;;;14.60;;
73747;SDS011;62056;52.130;5.428;2023-02-15T10:48:20;24.30;;;14.07;;
73747;SDS011;62056;52.130;5.428;2023-02-15T10:51:00;35.40;;;18.17;;
73747;SDS011;62056;52.130;5.428;2023-02-15T10:56:53;30.33;;;16.02;;
73747;SDS011;62056;52.130;5.428;2023-02-15T10:59:33;21.92;;;13.45;;
73747;SDS011;62056;52.130;5.428;2023-02-15T11:07:54;25.98;;;15.07;;
73747;SDS011;62056;52.130;5.428;2023-02-15T11:10:28;30.20;;;17.38;;
73747;SDS011;62056;52.130;5.428;2023-02-15T11:13:02;28.38;;;15.38;;
73747;SDS011;62056;52.130;5.428;2023-02-15T11:15:36;32.25;;;17.27;;
73747;SDS011;62056;52.130;5.428;2023-02-15T11:18:11;31.63;;;17.50;;
73747;SDS011;62056;52.130;5.428;2023-02-15T11:20:50;32.45;;;17.10;;
73747;SDS011;62056;52.130;5.428;2023-02-15T11:23:22;33.33;;;17.35;;
73747;SDS011;62056;52.130;5.428;2023-02-15T11:25:59;24.77;;;15.25;;
73747;SDS011;62056;52.130;5.428;2023-02-15T11:28:41;37.90;;;18.85;;
73747;SDS011;62056;52.130;5.428;2023-02-15T11:31:21;30.43;;;15.70;;
73747;SDS011;62056;52.130;5.428;2023-02-15T11:34:12;26.67;;;15.10;;
73747;SDS011;62056;52.130;5.428;2023-02-15T11:36:45;26.67;;;12.73;;
73747;SDS011;62056;52.130;5.428;2023-02-15T11:39:16;34.28;;;19.38;;
73747;SDS011;62056;52.130;5.428;2023-02-15T11:41:46;25.85;;;16.55;;
73747;SDS011;62056;52.130;5.428;2023-02-15T11:44:25;32.43;;;18.10;;
73747;SDS011;62056;52.130;5.428;2023-02-15T11:46:58;30.20;;;16.25;;
73747;SDS011;62056;52.130;5.428;2023-02-15T11:49:31;33.42;;;18.20;;
73747;SDS011;62056;52.130;5.428;2023-02-15T11:52:05;30.90;;;17.50;;
73747;SDS011;62056;52.130;5.428;2023-02-15T11:54:35;32.33;;;18.50;;
73747;SDS011;62056;52.130;5.428;2023-02-15T11:57:15;26.47;;;15.33;;
73747;SDS011;62056;52.130;5.428;2023-02-15T12:00:06;40.35;;;20.50;;
73747;SDS011;62056;52.130;5.428;2023-02-15T12:02:42;33.92;;;18.45;;
73747;SDS011;62056;52.130;5.428;2023-02-15T12:05:14;38.65;;;20.02;;
73747;SDS011;62056;52.130;5.428;2023-02-15T12:07:52;38.47;;;19.98;;
73747;SDS011;62056;52.130;5.428;2023-02-15T12:10:38;27.27;;;16.80;;
73747;SDS011;62056;52.130;5.428;2023-02-15T12:13:15;31.48;;;18.35;;
73747;SDS011;62056;52.130;5.428;2023-02-15T12:15:49;34.33;;;18.13;;
73747;SDS011;62056;52.130;5.428;2023-02-15T12:21:00;21.55;;;12.02;;
73747;SDS011;62056;52.130;5.428;2023-02-15T12:23:32;28.93;;;16.27;;
73747;SDS011;62056;52.130;5.428;2023-02-15T12:25:59;33.63;;;18.58;;
73747;SDS011;62056;52.130;5.428;2023-02-15T12:28:33;32.70;;;18.52;;
73747;SDS011;62056;52.130;5.428;2023-02-15T12:33:54;26.50;;;16.48;;
73747;SDS011;62056;52.130;5.428;2023-02-15T12:36:25;27.60;;;16.47;;
73747;SDS011;62056;52.130;5.428;2023-02-15T12:39:05;33.50;;;16.70;;
73747;SDS011;62056;52.130;5.428;2023-02-15T12:41:38;35.47;;;19.70;;
73747;SDS011;62056;52.130;5.428;2023-02-15T12:44:18;33.67;;;19.42;;
73747;SDS011;62056;52.130;5.428;2023-02-15T12:47:00;37.40;;;18.60;;
73747;SDS011;62056;52.130;5.428;2023-02-15T12:49:33;35.77;;;20.37;;
73747;SDS011;62056;52.130;5.428;2023-02-15T12:52:06;37.72;;;21.75;;
73747;SDS011;62056;52.130;5.428;2023-02-15T12:54:51;34.13;;;18.92;;
73747;SDS011;62056;52.130;5.428;2023-02-15T12:57:25;27.58;;;16.23;;
73747;SDS011;62056;52.130;5.428;2023-02-15T13:00:02;36.97;;;19.63;;
73747;SDS011;62056;52.130;5.428;2023-02-15T13:07:48;22.92;;;13.65;;
73747;SDS011;62056;52.130;5.428;2023-02-15T13:13:16;35.28;;;19.10;;
73747;SDS011;62056;52.130;5.428;2023-02-15T13:15:49;24.67;;;15.47;;
73747;SDS011;62056;52.130;5.428;2023-02-15T13:18:33;34.92;;;20.10;;
73747;SDS011;62056;52.130;5.428;2023-02-15T13:21:09;30.65;;;18.20;;
73747;SDS011;62056;52.130;5.428;2023-02-15T13:23:37;38.88;;;19.85;;
73747;SDS011;62056;52.130;5.428;2023-02-15T13:26:11;31.42;;;18.80;;
73747;SDS011;62056;52.130;5.428;2023-02-15T13:28:45;33.50;;;18.90;;
73747;SDS011;62056;52.130;5.428;2023-02-15T13:31:17;26.02;;;15.55;;
73747;SDS011;62056;52.130;5.428;2023-02-15T13:33:53;37.03;;;20.65;;
73747;SDS011;62056;52.130;5.428;2023-02-15T13:52:39;39.83;;;22.13;;
73747;SDS011;62056;52.130;5.428;2023-02-15T14:32:12;24.33;;;15.25;;
73747;SDS011;62056;52.130;5.428;2023-02-15T14:34:47;36.42;;;21.15;;
73747;SDS011;62056;52.130;5.428;2023-02-15T14:37:18;22.83;;;15.43;;
73747;SDS011;62056;52.130;5.428;2023-02-15T14:46:00;30.00;;;16.95;;
73747;SDS011;62056;52.130;5.428;2023-02-15T14:48:41;23.33;;;14.27;;
73747;SDS011;62056;52.130;5.428;2023-02-15T14:54:07;40.60;;;21.65;;
73747;SDS011;62056;52.130;5.428;2023-02-15T14:56:33;36.00;;;20.10;;
73747;SDS011;62056;52.130;5.428;2023-02-15T15:01:53;27.85;;;17.88;;
73747;SDS011;62056;52.130;5.428;2023-02-15T15:04:30;36.63;;;21.10;;
73747;SDS011;62056;52.130;5.428;2023-02-15T15:07:08;30.80;;;18.90;;
73747;SDS011;62056;52.130;5.428;2023-02-15T15:09:45;37.03;;;21.10;;
73747;SDS011;62056;52.130;5.428;2023-02-15T15:14:54;29.50;;;18.10;;
73747;SDS011;62056;52.130;5.428;2023-02-15T15:20:03;31.27;;;17.55;;
73747;SDS011;62056;52.130;5.428;2023-02-15T15:22:40;32.97;;;18.52;;
73747;SDS011;62056;52.130;5.428;2023-02-15T15:31:02;35.07;;;19.27;;
73747;SDS011;62056;52.130;5.428;2023-02-15T15:36:39;32.00;;;18.70;;
73747;SDS011;62056;52.130;5.428;2023-02-15T15:48:17;29.75;;;18.40;;
73747;SDS011;62056;52.130;5.428;2023-02-15T15:50:47;33.28;;;19.33;;
73747;SDS011;62056;52.130;5.428;2023-02-15T15:53:22;33.78;;;19.88;;
73747;SDS011;62056;52.130;5.428;2023-02-15T15:55:52;39.80;;;20.75;;
73747;SDS011;62056;52.130;5.428;2023-02-15T15:58:26;37.27;;;19.90;;
73747;SDS011;62056;52.130;5.428;2023-02-15T16:01:02;33.72;;;19.50;;
73747;SDS011;62056;52.130;5.428;2023-02-15T16:03:35;31.48;;;18.77;;
73747;SDS011;62056;52.130;5.428;2023-02-15T16:06:02;34.88;;;19.33;;
73747;SDS011;62056;52.130;5.428;2023-02-15T16:08:34;32.42;;;18.65;;
73747;SDS011;62056;52.130;5.428;2023-02-15T16:11:22;31.57;;;17.87;;
73747;SDS011;62056;52.130;5.428;2023-02-15T16:13:51;32.72;;;17.13;;
73747;SDS011;62056;52.130;5.428;2023-02-15T16:16:24;36.22;;;19.13;;
73747;SDS011;62056;52.130;5.428;2023-02-15T16:18:55;36.85;;;20.85;;
73747;SDS011;62056;52.130;5.428;2023-02-15T16:21:27;37.67;;;21.55;;
73747;SDS011;62056;52.130;5.428;2023-02-15T16:24:16;31.20;;;17.47;;
73747;SDS011;62056;52.130;5.428;2023-02-15T16:29:29;31.83;;;18.95;;
73747;SDS011;62056;52.130;5.428;2023-02-15T16:31:59;30.27;;;19.08;;
73747;SDS011;62056;52.130;5.428;2023-02-15T16:34:55;31.25;;;18.58;;
73747;SDS011;62056;52.130;5.428;2023-02-15T16:37:30;32.73;;;18.53;;
73747;SDS011;62056;52.130;5.428;2023-02-15T16:39:59;33.95;;;19.63;;
73747;SDS011;62056;52.130;5.428;2023-02-15T16:42:26;32.13;;;18.98;;
73747;SDS011;62056;52.130;5.428;2023-02-15T16:45:11;38.88;;;21.88;;
73747;SDS011;62056;52.130;5.428;2023-02-15T16:47:43;43.45;;;22.45;;
73747;SDS011;62056;52.130;5.428;2023-02-15T16:50:18;38.73;;;20.40;;
73747;SDS011;62056;52.130;5.428;2023-02-15T16:52:51;30.92;;;18.40;;
73747;SDS011;62056;52.130;5.428;2023-02-15T16:55:20;31.77;;;19.05;;
73747;SDS011;62056;52.130;5.428;2023-02-15T16:57:49;39.22;;;20.45;;
73747;SDS011;62056;52.130;5.428;2023-02-15T17:00:18;38.17;;;20.67;;
73747;SDS011;62056;52.130;5.428;2023-02-15T17:02:55;36.60;;;18.37;;
73747;SDS011;62056;52.130;5.428;2023-02-15T17:05:40;35.17;;;18.83;;
73747;SDS011;62056;52.130;5.428;2023-02-15T17:10:45;31.67;;;19.27;;
73747;SDS011;62056;52.130;5.428;2023-02-15T17:13:28;33.88;;;20.05;;
73747;SDS011;62056;52.130;5.428;2023-02-15T17:18:25;25.75;;;16.10;;
73747;SDS011;62056;52.130;5.428;2023-02-15T17:20:54;36.97;;;19.98;;
73747;SDS011;62056;52.130;5.428;2023-02-15T17:23:30;33.13;;;18.40;;
73747;SDS011;62056;52.130;5.428;2023-02-15T17:25:59;30.75;;;18.40;;
73747;SDS011;62056;52.130;5.428;2023-02-15T17:28:29;42.40;;;22.90;;
73747;SDS011;62056;52.130;5.428;2023-02-15T17:30:58;36.03;;;19.25;;
73747;SDS011;62056;52.130;5.428;2023-02-15T17:41:25;42.03;;;21.90;;
73747;SDS011;62056;52.130;5.428;2023-02-15T17:43:53;32.63;;;20.02;;
73747;SDS011;62056;52.130;5.428;2023-02-15T17:46:21;34.83;;;19.65;;
73747;SDS011;62056;52.130;5.428;2023-02-15T17:48:49;42.15;;;22.73;;
73747;SDS011;62056;52.130;5.428;2023-02-15T17:51:18;33.30;;;17.85;;
73747;SDS011;62056;52.130;5.428;2023-02-15T17:53:46;43.57;;;22.63;;
73747;SDS011;62056;52.130;5.428;2023-02-15T17:56:32;39.05;;;21.00;;
73747;SDS011;62056;52.130;5.428;2023-02-15T17:58:59;40.13;;;21.33;;
73747;SDS011;62056;52.130;5.428;2023-02-15T18:01:26;36.03;;;19.75;;
73747;SDS011;62056;52.130;5.428;2023-02-15T18:04:14;40.55;;;21.77;;
73747;SDS011;62056;52.130;5.428;2023-02-15T18:06:59;39.07;;;20.53;;
73747;SDS011;62056;52.130;5.428;2023-02-15T18:09:44;41.13;;;22.90;;
73747;SDS011;62056;52.130;5.428;2023-02-15T18:12:31;43.22;;;21.52;;